createdAt,value
2017-02-16T04:01:03.183Z,1029.51
2017-02-16T04:01:28.813Z,1029.53
2017-02-16T04:01:54.375Z,1029.53
2017-02-16T04:02:19.924Z,1029.5
2017-02-16T04:02:45.485Z,1029.53
2017-02-16T04:03:11.042Z,1029.58
2017-02-16T04:03:36.592Z,1029.52
2017-02-16T04:04:02.463Z,1029.52
2017-02-16T04:04:28.213Z,1029.52
2017-02-16T04:04:53.831Z,1029.51
2017-02-16T04:05:19.394Z,1029.52
2017-02-16T04:05:44.958Z,1029.53
2017-02-16T04:06:10.521Z,1029.5
2017-02-16T04:06:36.078Z,1029.52
2017-02-16T04:07:01.644Z,1029.5
2017-02-16T04:07:27.202Z,1029.52
2017-02-16T04:07:52.761Z,1029.51
2017-02-16T04:08:18.334Z,1029.46
2017-02-16T04:08:43.981Z,1029.51
2017-02-16T04:09:09.592Z,1029.47
2017-02-16T04:09:35.202Z,1029.47
2017-02-16T04:10:00.875Z,1029.48
2017-02-16T04:10:26.421Z,1029.46
2017-02-16T04:10:52.020Z,1029.47
2017-02-16T04:11:17.662Z,1029.45
2017-02-16T04:11:43.230Z,1029.47
2017-02-16T04:12:08.791Z,1029.43
2017-02-16T04:12:34.443Z,1029.48
2017-02-16T04:13:00.002Z,1029.42
2017-02-16T04:13:25.570Z,1029.45
2017-02-16T04:13:51.138Z,1029.43
2017-02-16T04:14:16.840Z,1029.41
2017-02-16T04:14:42.407Z,1029.45
2017-02-16T04:15:07.981Z,1029.44
2017-02-16T04:15:33.697Z,1029.41
2017-02-16T04:15:59.273Z,1029.43
2017-02-16T04:16:24.833Z,1029.4
2017-02-16T04:16:50.402Z,1029.42
2017-02-16T04:17:15.996Z,1029.42
2017-02-16T04:17:41.560Z,1029.43
2017-02-16T04:18:07.132Z,1029.39
2017-02-16T04:18:32.840Z,1029.4
2017-02-16T04:18:58.630Z,1029.44
2017-02-16T04:19:24.077Z,1029.43
2017-02-16T04:19:49.832Z,1029.44
2017-02-16T04:20:15.508Z,1029.44
2017-02-16T04:20:41.089Z,1029.35
2017-02-16T04:21:06.670Z,1029.35
2017-02-16T04:21:32.296Z,1029.41
2017-02-16T04:21:57.871Z,1029.37
2017-02-16T04:22:23.444Z,1029.4
2017-02-16T04:22:49.013Z,1029.37
2017-02-16T04:23:14.662Z,1029.43
2017-02-16T04:23:40.248Z,1029.43
2017-02-16T04:24:05.843Z,1029.45
2017-02-16T04:24:31.420Z,1029.46
2017-02-16T04:24:56.972Z,1029.45
2017-02-16T04:25:22.652Z,1029.45
2017-02-16T04:25:48.303Z,1029.5
2017-02-16T04:26:13.933Z,1029.5
2017-02-16T04:26:39.488Z,1029.44
2017-02-16T04:27:05.058Z,1029.45
2017-02-16T04:27:30.625Z,1029.48
2017-02-16T04:27:56.183Z,1029.43
2017-02-16T04:28:21.751Z,1029.42
2017-02-16T04:28:47.316Z,1029.41
2017-02-16T04:29:12.876Z,1029.44
2017-02-16T04:29:38.449Z,1029.44
2017-02-16T04:30:04.052Z,1029.44
2017-02-16T04:30:29.622Z,1029.4
2017-02-16T04:30:55.200Z,1029.43
2017-02-16T04:31:20.828Z,1029.43
2017-02-16T04:31:46.410Z,1029.43
2017-02-16T04:32:11.981Z,1029.43
2017-02-16T04:32:37.630Z,1029.45
2017-02-16T04:33:03.203Z,1029.44
2017-02-16T04:33:28.765Z,1029.43
2017-02-16T04:33:54.342Z,1029.4
2017-02-16T04:34:19.914Z,1029.42
2017-02-16T04:34:45.473Z,1029.41
2017-02-16T04:35:11.031Z,1029.38
2017-02-16T04:35:36.602Z,1029.42
2017-02-16T04:36:02.186Z,1029.42
2017-02-16T04:36:27.844Z,1029.4
2017-02-16T04:36:53.417Z,1029.41
2017-02-16T04:37:18.994Z,1029.44
2017-02-16T04:37:44.544Z,1029.4
2017-02-16T04:38:10.102Z,1029.41
2017-02-16T04:38:35.670Z,1029.39
2017-02-16T04:39:01.221Z,1029.44
2017-02-16T04:39:26.781Z,1029.45
2017-02-16T04:39:52.438Z,1029.43
2017-02-16T04:40:18.073Z,1029.4
2017-02-16T04:40:43.708Z,1029.39
2017-02-16T04:41:09.302Z,1029.39
2017-02-16T04:41:34.867Z,1029.4
2017-02-16T04:42:00.435Z,1029.4
2017-02-16T04:42:26.010Z,1029.41
2017-02-16T04:42:51.617Z,1029.39
2017-02-16T04:43:17.179Z,1029.38
2017-02-16T04:43:42.740Z,1029.39
2017-02-16T04:44:08.283Z,1029.38
2017-02-16T04:44:33.857Z,1029.37
2017-02-16T04:44:59.434Z,1029.43
2017-02-16T04:45:25.042Z,1029.38
2017-02-16T04:45:50.608Z,1029.41
2017-02-16T04:46:16.194Z,1029.47
2017-02-16T04:46:41.824Z,1029.45
2017-02-16T04:47:07.387Z,1029.45
2017-02-16T04:47:32.947Z,1029.4
2017-02-16T04:47:58.499Z,1029.39
2017-02-16T04:48:24.051Z,1029.37
2017-02-16T04:48:49.638Z,1029.4
2017-02-16T04:49:15.197Z,1029.41
2017-02-16T04:49:40.810Z,1029.41
2017-02-16T04:50:06.402Z,1029.42
2017-02-16T04:50:31.968Z,1029.39
2017-02-16T04:50:57.526Z,1029.38
2017-02-16T04:51:23.098Z,1029.37
2017-02-16T04:51:48.792Z,1029.39
2017-02-16T04:52:14.360Z,1029.41
2017-02-16T04:52:39.919Z,1029.34
2017-02-16T04:53:05.593Z,1029.36
2017-02-16T04:53:31.183Z,1029.36
2017-02-16T04:53:56.750Z,1029.34
2017-02-16T04:54:22.343Z,1029.37
2017-02-16T04:54:47.991Z,1029.32
2017-02-16T04:55:13.570Z,1029.32
2017-02-16T04:55:39.129Z,1029.31
2017-02-16T04:56:04.703Z,1029.3
2017-02-16T04:56:30.264Z,1029.34
2017-02-16T04:56:55.834Z,1029.28
2017-02-16T04:57:21.427Z,1029.32
2017-02-16T04:57:46.999Z,1029.33
2017-02-16T04:58:12.608Z,1029.3
2017-02-16T04:58:38.173Z,1029.29
2017-02-16T04:59:03.733Z,1029.28
2017-02-16T04:59:29.304Z,1029.29
2017-02-16T04:59:54.893Z,1029.29
2017-02-16T05:00:20.435Z,1029.28
2017-02-16T05:00:46.125Z,1029.29
2017-02-16T05:01:11.793Z,1029.27
2017-02-16T05:01:37.364Z,1029.3
2017-02-16T05:02:02.927Z,1029.28
2017-02-16T05:02:28.610Z,1029.29
2017-02-16T05:02:54.192Z,1029.27
2017-02-16T05:03:19.760Z,1029.25
2017-02-16T05:03:45.327Z,1029.26
2017-02-16T05:04:10.893Z,1029.26
2017-02-16T05:04:36.471Z,1029.3
2017-02-16T05:05:02.044Z,1029.26
2017-02-16T05:06:10.733Z,1029.29
2017-02-16T05:06:36.304Z,1029.26
2017-02-16T05:07:01.868Z,1029.26
2017-02-16T05:07:27.442Z,1029.26
2017-02-16T05:07:53.007Z,1029.23
2017-02-16T05:08:18.569Z,1029.24
2017-02-16T05:08:44.129Z,1029.23
2017-02-16T05:09:09.716Z,1029.22
2017-02-16T05:09:35.277Z,1029.23
2017-02-16T05:10:00.836Z,1029.26
2017-02-16T05:10:26.408Z,1029.23
2017-02-16T05:10:51.969Z,1029.22
2017-02-16T05:11:17.504Z,1029.28
2017-02-16T05:11:43.045Z,1029.27
2017-02-16T05:12:08.619Z,1029.28
2017-02-16T05:12:34.241Z,1029.25
2017-02-16T05:12:59.838Z,1029.26
2017-02-16T05:13:25.413Z,1029.31
2017-02-16T05:13:50.983Z,1029.27
2017-02-16T05:14:16.665Z,1029.29
2017-02-16T05:14:42.246Z,1029.25
2017-02-16T05:15:07.801Z,1029.28
2017-02-16T05:15:33.378Z,1029.27
2017-02-16T05:15:59.046Z,1029.25
2017-02-16T05:16:24.606Z,1029.26
2017-02-16T05:16:50.294Z,1029.24
2017-02-16T05:17:15.898Z,1029.22
2017-02-16T05:17:41.553Z,1029.24
2017-02-16T05:18:07.095Z,1029.25
2017-02-16T05:18:32.677Z,1029.26
2017-02-16T05:18:58.256Z,1029.23
2017-02-16T05:19:23.822Z,1029.22
2017-02-16T05:19:49.484Z,1029.21
2017-02-16T05:20:15.051Z,1029.16
2017-02-16T05:20:40.612Z,1029.21
2017-02-16T05:21:06.204Z,1029.18
2017-02-16T05:21:31.860Z,1029.21
2017-02-16T05:21:57.406Z,1029.19
2017-02-16T05:22:22.965Z,1029.13
2017-02-16T05:22:48.708Z,1029.14
2017-02-16T05:23:14.284Z,1029.19
2017-02-16T05:23:39.844Z,1029.14
2017-02-16T05:24:05.415Z,1029.14
2017-02-16T05:24:31.040Z,1029.16
2017-02-16T05:24:56.610Z,1029.18
2017-02-16T05:25:22.235Z,1029.13
2017-02-16T05:25:47.804Z,1029.14
2017-02-16T05:26:13.364Z,1029.18
2017-02-16T05:27:27.141Z,1029.14
2017-02-16T05:27:52.709Z,1029.16
2017-02-16T05:29:00.991Z,1029.15
2017-02-16T05:31:08.331Z,1029.06
2017-02-16T05:31:33.916Z,1029.07
2017-02-16T05:31:59.469Z,1029.08
2017-02-16T05:32:25.117Z,1029.13
2017-02-16T05:32:50.682Z,1029.08
2017-02-16T05:33:16.283Z,1029.09
2017-02-16T05:33:41.851Z,1029.11
2017-02-16T05:34:07.410Z,1029.09
2017-02-16T05:34:32.950Z,1029.08
2017-02-16T05:34:58.509Z,1029.06
2017-02-16T05:35:24.054Z,1029.07
2017-02-16T05:35:49.601Z,1029.07
2017-02-16T05:36:15.218Z,1029.07
2017-02-16T05:36:40.781Z,1029.05
2017-02-16T05:37:06.323Z,1029.06
2017-02-16T05:37:31.871Z,1029.05
2017-02-16T05:37:57.431Z,1029.05
2017-02-16T05:38:22.989Z,1029.03
2017-02-16T05:38:48.530Z,1029.05
2017-02-16T05:39:14.142Z,1029.02
2017-02-16T05:39:39.829Z,1029.04
2017-02-16T05:40:05.396Z,1029.01
2017-02-16T05:40:30.955Z,1029.05
2017-02-16T05:40:56.613Z,1029
2017-02-16T05:41:22.215Z,1029.02
2017-02-16T05:41:47.780Z,1029.02
2017-02-16T05:42:13.378Z,1029.02
2017-02-16T05:42:39.001Z,1029.03
2017-02-16T05:43:04.551Z,1028.99
2017-02-16T05:43:30.102Z,1029.05
2017-02-16T05:43:55.635Z,1029.02
2017-02-16T05:44:21.252Z,1028.99
2017-02-16T05:44:46.830Z,1029.01
2017-02-16T05:45:12.392Z,1029.02
2017-02-16T05:45:37.962Z,1029.02
2017-02-16T05:46:03.599Z,1029.04
2017-02-16T05:46:29.154Z,1029.03
2017-02-16T05:46:54.730Z,1029.04
2017-02-16T05:47:20.296Z,1029
2017-02-16T05:47:45.934Z,1029.04
2017-02-16T05:48:11.517Z,1029.01
2017-02-16T05:48:37.073Z,1029.02
2017-02-16T05:49:02.700Z,1029.02
2017-02-16T05:49:28.256Z,1029.03
2017-02-16T05:49:53.832Z,1029.02
2017-02-16T05:50:19.394Z,1029.02
2017-02-16T05:50:44.961Z,1029.02
2017-02-16T05:51:10.570Z,1029.05
2017-02-16T05:51:36.154Z,1029.03
2017-02-16T05:52:01.731Z,1029.02
2017-02-16T05:52:27.324Z,1029.03
2017-02-16T05:52:52.907Z,1029.03
2017-02-16T05:53:18.490Z,1028.99
2017-02-16T05:53:44.066Z,1028.99
2017-02-16T05:54:09.645Z,1029.01
2017-02-16T05:54:35.224Z,1029
2017-02-16T05:55:00.790Z,1029.01
2017-02-16T05:55:26.384Z,1029.03
2017-02-16T05:55:51.952Z,1029.05
2017-02-16T05:56:17.535Z,1029.02
2017-02-16T05:56:43.199Z,1028.97
2017-02-16T05:57:08.764Z,1029
2017-02-16T05:57:34.373Z,1028.99
2017-02-16T05:57:59.982Z,1028.96
2017-02-16T05:58:25.556Z,1029.01
2017-02-16T05:58:51.197Z,1028.99
2017-02-16T05:59:16.838Z,1028.97
2017-02-16T05:59:42.406Z,1028.98
2017-02-16T06:00:07.981Z,1028.99
2017-02-16T06:00:33.551Z,1028.96
2017-02-16T06:00:59.144Z,1028.95
2017-02-16T06:01:24.717Z,1028.94
2017-02-16T06:01:50.399Z,1028.98
2017-02-16T06:02:15.982Z,1028.96
2017-02-16T06:02:41.531Z,1028.98
2017-02-16T06:03:07.097Z,1028.96
2017-02-16T06:03:32.812Z,1028.92
2017-02-16T06:03:58.370Z,1028.93
2017-02-16T06:04:23.976Z,1028.96
2017-02-16T06:04:49.564Z,1028.94
2017-02-16T06:05:15.115Z,1028.93
2017-02-16T06:05:40.681Z,1028.93
2017-02-16T06:06:06.272Z,1028.96
2017-02-16T06:06:31.845Z,1028.93
2017-02-16T06:06:57.408Z,1028.95
2017-02-16T06:07:22.975Z,1028.96
2017-02-16T06:07:48.538Z,1028.98
2017-02-16T06:08:14.100Z,1028.93
2017-02-16T06:08:39.677Z,1029
2017-02-16T06:09:43.221Z,1028.94
2017-02-16T06:10:08.773Z,1028.94
2017-02-16T06:10:34.342Z,1028.97
2017-02-16T06:10:59.912Z,1028.95
2017-02-16T06:11:25.481Z,1028.99
2017-02-16T06:11:51.159Z,1028.99
2017-02-16T06:12:16.716Z,1028.98
2017-02-16T06:12:42.277Z,1029.06
2017-02-16T06:13:07.866Z,1029.03
2017-02-16T06:13:33.408Z,1029
2017-02-16T06:13:58.993Z,1029.02
2017-02-16T06:14:24.561Z,1028.97
2017-02-16T06:14:50.135Z,1029
2017-02-16T06:15:15.743Z,1028.98
2017-02-16T06:15:41.353Z,1028.96
2017-02-16T06:16:06.914Z,1029.03
2017-02-16T06:16:32.565Z,1029.01
2017-02-16T06:16:58.126Z,1029.04
2017-02-16T06:17:23.695Z,1029.02
2017-02-16T06:18:42.731Z,1029.04
2017-02-16T06:19:08.291Z,1029.01
2017-02-16T06:19:33.849Z,1029.03
2017-02-16T06:19:59.425Z,1029.02
2017-02-16T06:20:25.144Z,1029.01
2017-02-16T06:20:50.704Z,1029.01
2017-02-16T06:21:16.271Z,1028.99
2017-02-16T06:21:41.883Z,1028.99
2017-02-16T06:22:07.454Z,1028.97
2017-02-16T06:22:33.023Z,1028.98
2017-02-16T06:22:58.610Z,1028.98
2017-02-16T06:23:24.204Z,1028.96
2017-02-16T06:23:49.769Z,1028.95
2017-02-16T06:24:15.354Z,1028.97
2017-02-16T06:24:40.926Z,1028.98
2017-02-16T06:25:06.543Z,1028.96
2017-02-16T06:25:32.096Z,1028.97
2017-02-16T06:25:57.667Z,1028.94
2017-02-16T06:26:23.303Z,1029
2017-02-16T06:26:49.373Z,1028.97
2017-02-16T06:27:14.934Z,1028.99
2017-02-16T06:27:40.592Z,1028.98
2017-02-16T06:28:06.219Z,1028.96
2017-02-16T06:28:31.809Z,1028.99
2017-02-16T06:28:57.447Z,1028.96
2017-02-16T06:29:23.038Z,1028.96
2017-02-16T06:29:48.601Z,1028.93
2017-02-16T06:30:14.289Z,1028.97
2017-02-16T06:30:39.840Z,1028.98
2017-02-16T06:31:05.401Z,1028.98
2017-02-16T06:31:30.993Z,1029
2017-02-16T06:31:56.612Z,1028.98
2017-02-16T06:32:22.184Z,1028.96
2017-02-16T06:32:47.744Z,1028.99
2017-02-16T06:33:13.364Z,1028.98
2017-02-16T06:33:38.907Z,1028.98
2017-02-16T06:34:04.465Z,1028.99
2017-02-16T06:34:30.044Z,1028.99
2017-02-16T06:34:55.613Z,1028.97
2017-02-16T06:35:21.174Z,1028.97
2017-02-16T06:35:46.795Z,1029.02
2017-02-16T06:36:12.361Z,1028.97
2017-02-16T06:36:37.923Z,1028.96
2017-02-16T06:37:03.571Z,1028.98
2017-02-16T06:37:29.124Z,1028.99
2017-02-16T06:37:54.669Z,1028.98
2017-02-16T06:38:20.212Z,1029
2017-02-16T06:38:45.783Z,1028.95
2017-02-16T06:39:11.360Z,1028.91
2017-02-16T06:39:36.948Z,1028.96
2017-02-16T06:40:02.531Z,1028.94
2017-02-16T06:40:28.085Z,1028.92
2017-02-16T06:40:53.767Z,1028.96
2017-02-16T06:41:19.367Z,1028.93
2017-02-16T06:41:44.933Z,1028.92
2017-02-16T06:42:10.616Z,1028.93
2017-02-16T06:42:36.215Z,1028.94
2017-02-16T06:43:01.784Z,1028.96
2017-02-16T06:43:27.448Z,1028.94
2017-02-16T06:43:53.039Z,1028.96
2017-02-16T06:44:18.599Z,1028.91
2017-02-16T06:44:44.176Z,1028.92
2017-02-16T06:45:09.754Z,1028.9
2017-02-16T06:45:35.322Z,1028.89
2017-02-16T06:46:00.880Z,1028.89
2017-02-16T06:46:26.464Z,1028.91
2017-02-16T06:46:52.082Z,1028.94
2017-02-16T06:47:17.649Z,1028.9
2017-02-16T06:47:43.217Z,1028.92
2017-02-16T06:48:08.797Z,1028.92
2017-02-16T06:48:34.364Z,1028.92
2017-02-16T06:48:59.985Z,1028.88
2017-02-16T06:49:25.556Z,1028.93
2017-02-16T06:49:51.115Z,1028.9
2017-02-16T06:50:16.762Z,1028.94
2017-02-16T06:50:42.323Z,1028.93
2017-02-16T06:51:07.920Z,1028.92
2017-02-16T06:51:33.484Z,1028.9
2017-02-16T06:51:59.077Z,1028.95
2017-02-16T06:52:24.655Z,1028.94
2017-02-16T06:52:50.223Z,1028.91
2017-02-16T06:53:15.780Z,1028.92
2017-02-16T06:53:41.368Z,1028.92
2017-02-16T06:54:06.967Z,1028.93
2017-02-16T06:54:32.541Z,1028.96
2017-02-16T06:54:58.101Z,1028.96
2017-02-16T06:55:23.672Z,1028.97
2017-02-16T06:55:49.376Z,1028.98
2017-02-16T06:56:14.942Z,1028.99
2017-02-16T06:56:40.545Z,1028.96
2017-02-16T06:57:06.165Z,1028.96
2017-02-16T06:57:31.756Z,1028.99
2017-02-16T06:57:57.315Z,1029
2017-02-16T06:58:22.871Z,1028.95
2017-02-16T06:58:48.439Z,1028.97
2017-02-16T06:59:14.091Z,1029.03
2017-02-16T06:59:39.685Z,1029.02
2017-02-16T07:00:05.240Z,1028.98
2017-02-16T07:00:30.796Z,1028.97
2017-02-16T07:01:39.419Z,1028.93
2017-02-16T07:02:04.954Z,1028.97
2017-02-16T07:02:30.517Z,1028.93
2017-02-16T07:02:56.074Z,1028.93
2017-02-16T07:03:21.756Z,1028.95
2017-02-16T07:03:47.276Z,1028.96
2017-02-16T07:04:12.987Z,1028.94
2017-02-16T07:04:38.532Z,1028.94
2017-02-16T07:05:04.208Z,1028.93
2017-02-16T07:05:29.877Z,1028.93
2017-02-16T07:05:55.411Z,1028.88
2017-02-16T07:06:21.009Z,1028.85
2017-02-16T07:06:46.703Z,1028.89
2017-02-16T07:07:12.263Z,1028.87
2017-02-16T07:07:37.871Z,1028.88
2017-02-16T07:08:03.452Z,1028.86
2017-02-16T07:08:29.094Z,1028.87
2017-02-16T07:08:54.643Z,1028.9
2017-02-16T07:09:20.317Z,1028.9
2017-02-16T07:09:45.929Z,1028.86
2017-02-16T07:10:11.490Z,1028.88
2017-02-16T07:10:37.149Z,1028.84
2017-02-16T07:11:02.725Z,1028.89
2017-02-16T07:12:11.360Z,1028.88
2017-02-16T07:12:36.984Z,1028.9
2017-02-16T07:13:02.663Z,1028.93
2017-02-16T07:13:28.313Z,1028.9
2017-02-16T07:13:53.970Z,1028.9
2017-02-16T07:14:19.554Z,1028.9
2017-02-16T07:14:45.121Z,1028.92
2017-02-16T07:15:10.656Z,1028.94
2017-02-16T07:15:36.255Z,1028.97
2017-02-16T07:16:01.942Z,1028.95
2017-02-16T07:16:27.525Z,1028.93
2017-02-16T07:16:53.104Z,1028.93
2017-02-16T07:17:18.705Z,1028.92
2017-02-16T07:17:44.384Z,1028.92
2017-02-16T07:18:10.034Z,1028.91
2017-02-16T07:18:35.608Z,1028.94
2017-02-16T07:19:01.181Z,1028.94
2017-02-16T07:19:26.749Z,1028.91
2017-02-16T07:19:52.298Z,1028.91
2017-02-16T07:20:17.865Z,1028.89
2017-02-16T07:20:43.433Z,1028.89
2017-02-16T07:21:08.983Z,1028.9
2017-02-16T07:21:34.544Z,1028.89
2017-02-16T07:22:00.094Z,1028.92
2017-02-16T07:22:25.683Z,1028.92
2017-02-16T07:22:51.279Z,1028.92
2017-02-16T07:23:16.852Z,1028.93
2017-02-16T07:23:42.492Z,1028.91
2017-02-16T07:24:08.052Z,1028.9
2017-02-16T07:24:33.626Z,1028.91
2017-02-16T07:24:59.215Z,1028.93
2017-02-16T07:25:24.778Z,1028.9
2017-02-16T07:25:50.332Z,1028.91
2017-02-16T07:26:15.907Z,1028.91
2017-02-16T07:26:41.474Z,1028.95
2017-02-16T07:27:07.036Z,1028.9
2017-02-16T07:27:32.583Z,1028.87
2017-02-16T07:27:58.143Z,1028.9
2017-02-16T07:28:23.692Z,1028.94
2017-02-16T07:28:49.256Z,1028.91
2017-02-16T07:29:14.820Z,1028.88
2017-02-16T07:29:40.374Z,1028.95
2017-02-16T07:30:05.994Z,1028.88
2017-02-16T07:30:31.586Z,1028.91
2017-02-16T07:30:57.157Z,1028.92
2017-02-16T07:31:22.722Z,1028.96
2017-02-16T07:31:48.282Z,1028.94
2017-02-16T07:32:13.842Z,1028.93
2017-02-16T07:32:39.383Z,1028.9
2017-02-16T07:33:04.943Z,1028.93
2017-02-16T07:34:13.495Z,1028.87
2017-02-16T07:34:39.054Z,1028.93
2017-02-16T07:35:04.683Z,1028.89
2017-02-16T07:35:30.233Z,1028.87
2017-02-16T07:35:55.780Z,1028.88
2017-02-16T07:36:21.351Z,1028.9
2017-02-16T07:36:46.918Z,1028.87
2017-02-16T07:37:12.502Z,1028.85
2017-02-16T07:37:38.075Z,1028.87
2017-02-16T07:38:03.633Z,1028.85
2017-02-16T07:38:29.207Z,1028.87
2017-02-16T07:38:54.885Z,1028.87
2017-02-16T07:39:20.445Z,1028.85
2017-02-16T07:39:46.023Z,1028.87
2017-02-16T07:40:11.683Z,1028.87
2017-02-16T07:40:37.246Z,1028.84
2017-02-16T07:41:02.804Z,1028.86
2017-02-16T07:41:28.524Z,1028.83
2017-02-16T07:41:54.080Z,1028.87
2017-02-16T07:42:19.633Z,1028.84
2017-02-16T07:42:45.269Z,1028.83
2017-02-16T07:43:10.910Z,1028.81
2017-02-16T07:43:36.441Z,1028.81
2017-02-16T07:44:01.994Z,1028.86
2017-02-16T07:44:27.575Z,1028.88
2017-02-16T07:44:53.119Z,1028.86
2017-02-16T07:45:18.682Z,1028.82
2017-02-16T07:45:44.257Z,1028.91
2017-02-16T07:46:09.794Z,1028.92
2017-02-16T07:46:35.490Z,1028.89
2017-02-16T07:47:01.091Z,1028.87
2017-02-16T07:47:26.641Z,1028.94
2017-02-16T07:47:52.223Z,1028.87
2017-02-16T07:48:17.834Z,1028.9
2017-02-16T07:48:43.387Z,1028.83
2017-02-16T07:49:08.930Z,1028.84
2017-02-16T07:49:34.652Z,1028.9
2017-02-16T07:50:00.193Z,1028.87
2017-02-16T07:50:25.731Z,1028.86
2017-02-16T07:50:51.293Z,1028.84
2017-02-16T07:51:16.867Z,1028.84
2017-02-16T07:51:42.503Z,1028.87
2017-02-16T07:52:08.096Z,1028.84
2017-02-16T07:52:33.665Z,1028.85
2017-02-16T07:52:59.236Z,1028.86
2017-02-16T07:53:25.121Z,1028.87
2017-02-16T07:53:50.666Z,1028.85
2017-02-16T07:54:16.222Z,1028.88
2017-02-16T07:54:41.855Z,1028.84
2017-02-16T07:55:07.506Z,1028.86
2017-02-16T07:55:33.064Z,1028.9
2017-02-16T07:55:58.644Z,1028.92
2017-02-16T07:56:24.206Z,1028.9
2017-02-16T07:56:49.913Z,1028.94
2017-02-16T07:57:15.466Z,1028.97
2017-02-16T07:57:41.106Z,1028.96
2017-02-16T07:58:06.717Z,1028.91
2017-02-16T07:58:32.286Z,1028.93
2017-02-16T07:58:57.914Z,1028.95
2017-02-16T07:59:23.496Z,1028.91
2017-02-16T07:59:49.114Z,1028.89
2017-02-16T08:00:14.676Z,1028.93
2017-02-16T08:00:40.251Z,1028.93
2017-02-16T08:01:05.916Z,1028.91
2017-02-16T08:01:31.481Z,1028.91
2017-02-16T08:01:57.127Z,1028.91
2017-02-16T08:02:22.721Z,1028.94
2017-02-16T08:02:48.337Z,1028.91
2017-02-16T08:03:13.976Z,1028.89
2017-02-16T08:03:39.542Z,1028.9
2017-02-16T08:04:05.101Z,1028.88
2017-02-16T08:04:30.729Z,1028.89
2017-02-16T08:04:56.362Z,1028.93
2017-02-16T08:05:21.930Z,1028.9
2017-02-16T08:05:47.523Z,1028.91
2017-02-16T08:06:13.102Z,1028.87
2017-02-16T08:06:38.720Z,1028.9
2017-02-16T08:07:04.287Z,1028.91
2017-02-16T08:07:29.863Z,1028.9
2017-02-16T08:07:55.427Z,1028.9
2017-02-16T08:08:20.997Z,1028.87
2017-02-16T08:08:46.550Z,1028.87
2017-02-16T08:09:12.135Z,1028.87
2017-02-16T08:09:37.716Z,1028.81
2017-02-16T08:10:03.282Z,1028.89
2017-02-16T08:10:28.853Z,1028.87
2017-02-16T08:10:54.443Z,1028.87
2017-02-16T08:11:20.011Z,1028.82
2017-02-16T08:11:45.823Z,1028.81
2017-02-16T08:12:11.404Z,1028.82
2017-02-16T08:12:36.963Z,1028.85
2017-02-16T08:13:02.564Z,1028.8
2017-02-16T08:13:28.145Z,1028.83
2017-02-16T08:13:53.704Z,1028.84
2017-02-16T08:14:19.355Z,1028.84
2017-02-16T08:14:44.949Z,1028.79
2017-02-16T08:15:10.522Z,1028.81
2017-02-16T08:15:36.107Z,1028.83
2017-02-16T08:16:01.701Z,1028.81
2017-02-16T08:16:27.268Z,1028.85
2017-02-16T08:16:52.864Z,1028.88
2017-02-16T08:17:18.446Z,1028.89
2017-02-16T08:17:44.030Z,1028.91
2017-02-16T08:18:09.582Z,1028.86
2017-02-16T08:18:35.214Z,1028.91
2017-02-16T08:19:00.905Z,1028.93
2017-02-16T08:19:26.481Z,1028.94
2017-02-16T08:19:52.053Z,1028.95
2017-02-16T08:20:17.653Z,1028.91
2017-02-16T08:20:43.225Z,1028.94
2017-02-16T08:21:08.793Z,1028.9
2017-02-16T08:21:34.351Z,1028.88
2017-02-16T08:21:59.923Z,1028.94
2017-02-16T08:22:25.483Z,1029.03
2017-02-16T08:22:51.077Z,1028.99
2017-02-16T08:23:16.629Z,1028.96
2017-02-16T08:23:42.179Z,1028.96
2017-02-16T08:24:07.728Z,1028.94
2017-02-16T08:24:33.312Z,1028.99
2017-02-16T08:24:58.885Z,1028.95
2017-02-16T08:25:24.446Z,1028.98
2017-02-16T08:25:49.982Z,1029.03
2017-02-16T08:26:15.537Z,1028.99
2017-02-16T08:26:41.226Z,1028.95
2017-02-16T08:27:06.776Z,1028.98
2017-02-16T08:27:32.325Z,1028.99
2017-02-16T08:27:58.719Z,1028.98
2017-02-16T08:28:23.442Z,1028.98
2017-02-16T08:28:49.088Z,1028.95
2017-02-16T08:29:14.659Z,1028.95
2017-02-16T08:29:40.224Z,1028.96
2017-02-16T08:30:06.097Z,1028.97
2017-02-16T08:30:31.683Z,1028.98
2017-02-16T08:30:57.248Z,1028.93
2017-02-16T08:31:22.793Z,1028.93
2017-02-16T08:31:48.404Z,1028.97
2017-02-16T08:32:13.953Z,1028.93
2017-02-16T08:32:39.504Z,1028.93
2017-02-16T08:33:05.045Z,1028.94
2017-02-16T08:33:30.624Z,1028.94
2017-02-16T08:33:56.179Z,1028.93
2017-02-16T08:34:21.764Z,1028.91
2017-02-16T08:34:47.308Z,1028.89
2017-02-16T08:35:12.858Z,1028.9
2017-02-16T08:35:38.401Z,1028.92
2017-02-16T08:36:03.992Z,1028.89
2017-02-16T08:36:29.637Z,1028.86
2017-02-16T08:36:55.246Z,1028.86
2017-02-16T08:37:20.988Z,1028.86
2017-02-16T08:37:46.521Z,1028.84
2017-02-16T08:38:12.093Z,1028.84
2017-02-16T08:38:37.651Z,1028.8
2017-02-16T08:39:03.195Z,1028.84
2017-02-16T08:39:28.725Z,1028.83
2017-02-16T08:39:54.270Z,1028.84
2017-02-16T08:40:19.806Z,1028.84
2017-02-16T08:40:45.370Z,1028.82
2017-02-16T08:41:10.929Z,1028.84
2017-02-16T08:41:36.489Z,1028.88
2017-02-16T08:42:02.085Z,1028.83
2017-02-16T08:42:27.637Z,1028.9
2017-02-16T08:42:53.192Z,1028.86
2017-02-16T08:43:18.729Z,1028.85
2017-02-16T08:43:44.339Z,1028.86
2017-02-16T08:44:09.993Z,1028.88
2017-02-16T08:44:35.536Z,1028.85
2017-02-16T08:45:01.089Z,1028.87
2017-02-16T08:45:26.673Z,1028.86
2017-02-16T08:45:52.241Z,1028.84
2017-02-16T08:46:17.782Z,1028.87
2017-02-16T08:46:43.335Z,1028.88
2017-02-16T08:47:08.885Z,1028.87
2017-02-16T08:47:34.543Z,1028.84
2017-02-16T08:48:00.137Z,1028.89
2017-02-16T08:48:25.671Z,1028.89
2017-02-16T08:48:51.219Z,1028.88
2017-02-16T08:49:16.941Z,1028.86
2017-02-16T08:49:42.514Z,1028.86
2017-02-16T08:50:08.064Z,1028.87
2017-02-16T08:50:33.631Z,1028.89
2017-02-16T08:50:59.337Z,1028.91
2017-02-16T08:51:24.895Z,1028.89
2017-02-16T08:51:50.522Z,1028.93
2017-02-16T08:52:16.170Z,1028.91
2017-02-16T08:52:41.715Z,1028.91
2017-02-16T08:53:07.294Z,1028.93
2017-02-16T08:53:32.873Z,1028.89
2017-02-16T08:53:58.426Z,1028.9
2017-02-16T08:54:23.966Z,1028.88
2017-02-16T08:54:49.504Z,1028.92
2017-02-16T08:55:15.099Z,1028.84
2017-02-16T08:55:40.742Z,1028.84
2017-02-16T08:56:06.353Z,1028.86
2017-02-16T08:56:31.904Z,1028.87
2017-02-16T08:56:57.455Z,1028.85
2017-02-16T08:57:23.009Z,1028.84
2017-02-16T08:57:48.558Z,1028.84
2017-02-16T08:58:14.136Z,1028.8
2017-02-16T08:58:39.694Z,1028.86
2017-02-16T08:59:05.269Z,1028.85
2017-02-16T08:59:30.840Z,1028.87
2017-02-16T08:59:56.411Z,1028.85
2017-02-16T09:00:21.981Z,1028.83
2017-02-16T09:00:47.565Z,1028.84
2017-02-16T09:01:13.167Z,1028.87
2017-02-16T09:01:38.734Z,1028.85
2017-02-16T09:02:04.281Z,1028.88
2017-02-16T09:02:29.846Z,1028.83
2017-02-16T09:02:55.413Z,1028.8
2017-02-16T09:03:21.083Z,1028.85
2017-02-16T09:03:46.635Z,1028.85
2017-02-16T09:04:12.172Z,1028.83
2017-02-16T09:04:37.889Z,1028.82
2017-02-16T09:05:03.465Z,1028.81
2017-02-16T09:05:29.020Z,1028.79
2017-02-16T09:05:54.592Z,1028.77
2017-02-16T09:06:20.170Z,1028.82
2017-02-16T09:06:45.743Z,1028.79
2017-02-16T09:07:11.395Z,1028.82
2017-02-16T09:07:36.973Z,1028.8
2017-02-16T09:08:02.532Z,1028.79
2017-02-16T09:08:28.095Z,1028.79
2017-02-16T09:08:53.640Z,1028.73
2017-02-16T09:09:19.196Z,1028.77
2017-02-16T09:09:44.812Z,1028.78
2017-02-16T09:10:10.355Z,1028.76
2017-02-16T09:10:35.923Z,1028.74
2017-02-16T09:11:01.679Z,1028.73
2017-02-16T09:11:27.242Z,1028.8
2017-02-16T09:11:52.813Z,1028.78
2017-02-16T09:12:18.475Z,1028.77
2017-02-16T09:12:44.306Z,1028.8
2017-02-16T09:13:09.881Z,1028.75
2017-02-16T09:13:35.454Z,1028.74
2017-02-16T09:14:01.031Z,1028.78
2017-02-16T09:14:26.677Z,1028.72
2017-02-16T09:14:52.243Z,1028.74
2017-02-16T09:15:17.790Z,1028.82
2017-02-16T09:15:43.374Z,1028.8
2017-02-16T09:16:09.050Z,1028.7
2017-02-16T09:16:34.594Z,1028.75
2017-02-16T09:17:00.148Z,1028.72
2017-02-16T09:17:25.731Z,1028.76
2017-02-16T09:17:51.453Z,1028.75
2017-02-16T09:18:17.023Z,1028.77
2017-02-16T09:18:42.577Z,1028.79
2017-02-16T09:19:08.209Z,1028.78